Moreland, Idaho
Current Conditions -  °F | °C
As of 6:53 AM on Wednesday 22 Oct 2014 (Local Time) from KPIH Reporting Station
Clear Clear  
Wind Chill: 19°   Ceiling: Unl
Heat Index: 25°   Visibility: 10mi
Dew Point: 24°   Wind: 5mph
Humidity: 96%   Direction: 360°N
Pressure: 30.17"   Gusts: NA
Location:  43.22°N, 112.44°W
Report Text: KPIH 221253Z 36004KT 10SM CLR M04/M04 A3017 RMK AO2 SLP226 T10391044
Loading
Personal Weather Stations






























Interactive Weather Map
Tropical Storm Tracking
New forecast layout! Learn more

10-Day Weather Forecast

Advertisements
Track Severe Weather on mobile